sensor_id;sensor_type;location;lat;lon;timestamp;temperature;humidity
18654;DHT22;9456;47.824;16.228;2023-06-22T00:00:11;19.80;99.90
18654;DHT22;9456;47.824;16.228;2023-06-22T00:02:40;19.70;99.90
18654;DHT22;9456;47.824;16.228;2023-06-22T00:05:09;19.70;99.90
18654;DHT22;9456;47.824;16.228;2023-06-22T00:07:38;19.70;99.90
18654;DHT22;9456;47.824;16.228;2023-06-22T00:10:09;19.60;99.90
18654;DHT22;9456;47.824;16.228;2023-06-22T00:12:38;19.60;99.90
18654;DHT22;9456;47.824;16.228;2023-06-22T00:15:08;19.60;99.90
18654;DHT22;9456;47.824;16.228;2023-06-22T00:17:37;19.60;99.90
18654;DHT22;9456;47.824;16.228;2023-06-22T00:20:07;19.50;99.90
18654;DHT22;9456;47.824;16.228;2023-06-22T00:22:37;19.60;99.90
18654;DHT22;9456;47.824;16.228;2023-06-22T00:25:09;19.50;99.90
18654;DHT22;9456;47.824;16.228;2023-06-22T00:27:37;19.40;99.90
18654;DHT22;9456;47.824;16.228;2023-06-22T00:30:08;19.40;99.90
18654;DHT22;9456;47.824;16.228;2023-06-22T00:32:37;19.40;99.90
18654;DHT22;9456;47.824;16.228;2023-06-22T00:35:07;19.40;99.90
18654;DHT22;9456;47.824;16.228;2023-06-22T00:37:36;19.40;99.90
18654;DHT22;9456;47.824;16.228;2023-06-22T00:40:07;19.30;99.90
18654;DHT22;9456;47.824;16.228;2023-06-22T00:42:36;19.40;99.90
18654;DHT22;9456;47.824;16.228;2023-06-22T00:45:06;19.30;99.90
18654;DHT22;9456;47.824;16.228;2023-06-22T00:47:36;19.30;99.90
18654;DHT22;9456;47.824;16.228;2023-06-22T00:50:05;19.30;99.90
18654;DHT22;9456;47.824;16.228;2023-06-22T00:52:34;19.30;99.90
18654;DHT22;9456;47.824;16.228;2023-06-22T00:55:04;19.30;99.90
18654;DHT22;9456;47.824;16.228;2023-06-22T00:57:33;19.40;99.90
18654;DHT22;9456;47.824;16.228;2023-06-22T01:00:04;19.40;99.90
18654;DHT22;9456;47.824;16.228;2023-06-22T01:02:34;19.40;99.90
18654;DHT22;9456;47.824;16.228;2023-06-22T01:05:04;19.40;99.90
18654;DHT22;9456;47.824;16.228;2023-06-22T01:07:34;19.40;99.90
18654;DHT22;9456;47.824;16.228;2023-06-22T01:10:03;19.40;99.90
18654;DHT22;9456;47.824;16.228;2023-06-22T01:12:32;19.30;99.90
18654;DHT22;9456;47.824;16.228;2023-06-22T01:15:02;19.30;99.90
18654;DHT22;9456;47.824;16.228;2023-06-22T01:17:30;19.30;99.90
18654;DHT22;9456;47.824;16.228;2023-06-22T01:19:59;19.30;99.90
18654;DHT22;9456;47.824;16.228;2023-06-22T01:22:30;19.30;99.90
18654;DHT22;9456;47.824;16.228;2023-06-22T01:25:00;19.30;99.90
18654;DHT22;9456;47.824;16.228;2023-06-22T01:27:35;19.30;99.90
18654;DHT22;9456;47.824;16.228;2023-06-22T01:30:02;19.30;99.90
18654;DHT22;9456;47.824;16.228;2023-06-22T01:32:31;19.20;99.90
18654;DHT22;9456;47.824;16.228;2023-06-22T01:35:00;19.20;99.90
18654;DHT22;9456;47.824;16.228;2023-06-22T01:37:29;19.20;99.90
18654;DHT22;9456;47.824;16.228;2023-06-22T01:39:58;19.10;99.90
18654;DHT22;9456;47.824;16.228;2023-06-22T01:42:26;19.10;99.90
18654;DHT22;9456;47.824;16.228;2023-06-22T01:44:55;19.10;99.90
18654;DHT22;9456;47.824;16.228;2023-06-22T01:47:24;19.10;99.90
18654;DHT22;9456;47.824;16.228;2023-06-22T01:49:53;19.10;99.90
18654;DHT22;9456;47.824;16.228;2023-06-22T01:52:22;19.00;99.90
18654;DHT22;9456;47.824;16.228;2023-06-22T01:54:52;19.00;99.90
18654;DHT22;9456;47.824;16.228;2023-06-22T01:57:21;19.00;99.90
18654;DHT22;9456;47.824;16.228;2023-06-22T01:59:52;18.90;99.90
18654;DHT22;9456;47.824;16.228;2023-06-22T02:02:22;18.90;99.90
18654;DHT22;9456;47.824;16.228;2023-06-22T02:04:52;18.90;99.90
18654;DHT22;9456;47.824;16.228;2023-06-22T02:07:20;18.80;99.90
18654;DHT22;9456;47.824;16.228;2023-06-22T02:09:50;18.80;99.90
18654;DHT22;9456;47.824;16.228;2023-06-22T02:12:22;18.80;99.90
18654;DHT22;9456;47.824;16.228;2023-06-22T02:14:47;18.80;99.90
18654;DHT22;9456;47.824;16.228;2023-06-22T02:17:17;18.80;99.90
18654;DHT22;9456;47.824;16.228;2023-06-22T02:19:45;18.80;99.90
18654;DHT22;9456;47.824;16.228;2023-06-22T02:22:14;18.80;99.90
18654;DHT22;9456;47.824;16.228;2023-06-22T02:24:43;18.80;99.90
18654;DHT22;9456;47.824;16.228;2023-06-22T02:27:12;18.80;99.90
18654;DHT22;9456;47.824;16.228;2023-06-22T02:29:40;18.80;99.90
18654;DHT22;9456;47.824;16.228;2023-06-22T02:32:09;18.80;99.90
18654;DHT22;9456;47.824;16.228;2023-06-22T02:34:38;18.80;99.90
18654;DHT22;9456;47.824;16.228;2023-06-22T02:37:07;18.80;99.90
18654;DHT22;9456;47.824;16.228;2023-06-22T02:39:36;18.70;99.90
18654;DHT22;9456;47.824;16.228;2023-06-22T02:42:06;18.70;99.90
18654;DHT22;9456;47.824;16.228;2023-06-22T02:44:34;18.70;99.90
18654;DHT22;9456;47.824;16.228;2023-06-22T02:47:04;18.70;99.90
18654;DHT22;9456;47.824;16.228;2023-06-22T02:49:33;18.70;99.90
18654;DHT22;9456;47.824;16.228;2023-06-22T02:52:02;18.70;99.90
18654;DHT22;9456;47.824;16.228;2023-06-22T02:54:31;18.70;99.90
18654;DHT22;9456;47.824;16.228;2023-06-22T02:57:00;18.70;99.90
18654;DHT22;9456;47.824;16.228;2023-06-22T02:59:29;18.70;99.90
18654;DHT22;9456;47.824;16.228;2023-06-22T03:01:58;18.70;99.90
18654;DHT22;9456;47.824;16.228;2023-06-22T03:09:47;18.70;99.90
18654;DHT22;9456;47.824;16.228;2023-06-22T03:12:16;18.70;99.90
18654;DHT22;9456;47.824;16.228;2023-06-22T03:14:45;18.70;99.90
18654;DHT22;9456;47.824;16.228;2023-06-22T03:17:14;18.70;99.90
18654;DHT22;9456;47.824;16.228;2023-06-22T03:19:43;18.70;99.90
18654;DHT22;9456;47.824;16.228;2023-06-22T03:22:12;18.70;99.90
18654;DHT22;9456;47.824;16.228;2023-06-22T03:24:41;18.70;99.90
18654;DHT22;9456;47.824;16.228;2023-06-22T03:27:10;18.70;99.90
18654;DHT22;9456;47.824;16.228;2023-06-22T03:29:39;18.70;99.90
18654;DHT22;9456;47.824;16.228;2023-06-22T03:32:08;18.70;99.90
18654;DHT22;9456;47.824;16.228;2023-06-22T03:34:37;18.70;99.90
18654;DHT22;9456;47.824;16.228;2023-06-22T03:37:06;18.70;99.90
18654;DHT22;9456;47.824;16.228;2023-06-22T03:39:35;18.80;99.90
18654;DHT22;9456;47.824;16.228;2023-06-22T03:42:06;18.80;99.90
18654;DHT22;9456;47.824;16.228;2023-06-22T03:44:35;18.90;99.90
18654;DHT22;9456;47.824;16.228;2023-06-22T03:47:05;18.90;99.90
18654;DHT22;9456;47.824;16.228;2023-06-22T03:49:34;19.00;99.90
18654;DHT22;9456;47.824;16.228;2023-06-22T03:52:03;19.20;99.90
18654;DHT22;9456;47.824;16.228;2023-06-22T03:54:32;19.30;99.90
18654;DHT22;9456;47.824;16.228;2023-06-22T03:57:01;19.40;99.90
18654;DHT22;9456;47.824;16.228;2023-06-22T03:59:30;19.50;99.90
18654;DHT22;9456;47.824;16.228;2023-06-22T04:01:59;19.70;99.90
18654;DHT22;9456;47.824;16.228;2023-06-22T04:04:28;19.90;99.90
18654;DHT22;9456;47.824;16.228;2023-06-22T04:07:01;19.90;99.90
18654;DHT22;9456;47.824;16.228;2023-06-22T04:09:29;20.10;99.90
18654;DHT22;9456;47.824;16.228;2023-06-22T04:11:58;20.10;99.90
18654;DHT22;9456;47.824;16.228;2023-06-22T04:14:27;20.20;99.90
18654;DHT22;9456;47.824;16.228;2023-06-22T04:16:57;20.40;99.90
18654;DHT22;9456;47.824;16.228;2023-06-22T04:19:25;20.60;99.90
18654;DHT22;9456;47.824;16.228;2023-06-22T04:21:54;20.70;99.90
18654;DHT22;9456;47.824;16.228;2023-06-22T04:24:23;20.70;99.90
18654;DHT22;9456;47.824;16.228;2023-06-22T04:26:52;20.90;99.90
18654;DHT22;9456;47.824;16.228;2023-06-22T04:29:22;20.90;99.90
18654;DHT22;9456;47.824;16.228;2023-06-22T04:31:52;21.10;99.90
18654;DHT22;9456;47.824;16.228;2023-06-22T04:34:21;21.20;99.90
18654;DHT22;9456;47.824;16.228;2023-06-22T04:36:50;21.40;99.90
18654;DHT22;9456;47.824;16.228;2023-06-22T04:39:19;21.60;99.90
18654;DHT22;9456;47.824;16.228;2023-06-22T04:41:47;21.70;99.90
18654;DHT22;9456;47.824;16.228;2023-06-22T04:44:17;21.90;99.90
18654;DHT22;9456;47.824;16.228;2023-06-22T04:46:47;22.20;99.90
18654;DHT22;9456;47.824;16.228;2023-06-22T04:49:16;22.30;99.90
18654;DHT22;9456;47.824;16.228;2023-06-22T04:51:45;22.40;99.90
18654;DHT22;9456;47.824;16.228;2023-06-22T04:54:13;22.50;99.90
18654;DHT22;9456;47.824;16.228;2023-06-22T04:56:42;22.70;99.90
18654;DHT22;9456;47.824;16.228;2023-06-22T04:59:13;22.90;99.90
18654;DHT22;9456;47.824;16.228;2023-06-22T05:01:42;23.20;99.90
18654;DHT22;9456;47.824;16.228;2023-06-22T05:04:11;23.40;99.90
18654;DHT22;9456;47.824;16.228;2023-06-22T05:06:40;23.60;99.90
18654;DHT22;9456;47.824;16.228;2023-06-22T05:09:09;23.70;99.90
18654;DHT22;9456;47.824;16.228;2023-06-22T05:11:38;23.80;99.90
18654;DHT22;9456;47.824;16.228;2023-06-22T05:14:07;24.00;99.90
18654;DHT22;9456;47.824;16.228;2023-06-22T05:16:36;24.20;99.90
18654;DHT22;9456;47.824;16.228;2023-06-22T05:19:05;24.30;99.90
18654;DHT22;9456;47.824;16.228;2023-06-22T05:21:34;24.50;99.90
18654;DHT22;9456;47.824;16.228;2023-06-22T05:24:03;24.60;99.90
18654;DHT22;9456;47.824;16.228;2023-06-22T05:26:33;24.70;99.90
18654;DHT22;9456;47.824;16.228;2023-06-22T05:29:01;24.80;99.90
18654;DHT22;9456;47.824;16.228;2023-06-22T05:31:29;24.90;99.90
18654;DHT22;9456;47.824;16.228;2023-06-22T05:33:58;25.00;99.90
18654;DHT22;9456;47.824;16.228;2023-06-22T05:36:28;25.10;99.90
18654;DHT22;9456;47.824;16.228;2023-06-22T05:38:58;25.30;99.90
18654;DHT22;9456;47.824;16.228;2023-06-22T05:41:27;25.50;99.90
18654;DHT22;9456;47.824;16.228;2023-06-22T05:43:56;25.70;99.90
18654;DHT22;9456;47.824;16.228;2023-06-22T05:46:25;25.90;99.90
18654;DHT22;9456;47.824;16.228;2023-06-22T05:48:54;26.20;99.90
18654;DHT22;9456;47.824;16.228;2023-06-22T05:51:23;26.40;99.90
18654;DHT22;9456;47.824;16.228;2023-06-22T05:53:52;26.70;99.90
18654;DHT22;9456;47.824;16.228;2023-06-22T05:56:20;27.10;99.90
18654;DHT22;9456;47.824;16.228;2023-06-22T05:58:49;27.50;99.90
18654;DHT22;9456;47.824;16.228;2023-06-22T06:01:18;27.80;99.90
18654;DHT22;9456;47.824;16.228;2023-06-22T06:03:47;28.00;99.90
18654;DHT22;9456;47.824;16.228;2023-06-22T06:06:16;28.20;99.90
18654;DHT22;9456;47.824;16.228;2023-06-22T06:08:45;28.30;99.90
18654;DHT22;9456;47.824;16.228;2023-06-22T06:11:22;28.30;99.90
18654;DHT22;9456;47.824;16.228;2023-06-22T06:13:51;28.30;99.90
18654;DHT22;9456;47.824;16.228;2023-06-22T06:16:20;28.20;99.90
18654;DHT22;9456;47.824;16.228;2023-06-22T06:18:49;28.20;99.90
18654;DHT22;9456;47.824;16.228;2023-06-22T06:21:18;28.40;99.90
18654;DHT22;9456;47.824;16.228;2023-06-22T06:23:47;28.60;99.90
18654;DHT22;9456;47.824;16.228;2023-06-22T06:26:16;28.60;99.90
18654;DHT22;9456;47.824;16.228;2023-06-22T06:28:45;28.90;99.90
18654;DHT22;9456;47.824;16.228;2023-06-22T06:31:13;29.20;99.90
18654;DHT22;9456;47.824;16.228;2023-06-22T06:33:42;29.60;99.90
18654;DHT22;9456;47.824;16.228;2023-06-22T06:36:11;29.90;99.90
18654;DHT22;9456;47.824;16.228;2023-06-22T06:38:40;30.30;99.90
18654;DHT22;9456;47.824;16.228;2023-06-22T06:41:09;30.60;99.90
18654;DHT22;9456;47.824;16.228;2023-06-22T06:43:38;30.90;99.90
18654;DHT22;9456;47.824;16.228;2023-06-22T06:46:07;31.40;99.90
18654;DHT22;9456;47.824;16.228;2023-06-22T06:48:36;32.00;99.90
18654;DHT22;9456;47.824;16.228;2023-06-22T06:51:05;32.80;99.90
18654;DHT22;9456;47.824;16.228;2023-06-22T06:53:34;33.30;99.90
18654;DHT22;9456;47.824;16.228;2023-06-22T06:56:03;33.30;98.70
18654;DHT22;9456;47.824;16.228;2023-06-22T06:58:32;33.20;99.10
18654;DHT22;9456;47.824;16.228;2023-06-22T07:01:01;32.80;99.90
18654;DHT22;9456;47.824;16.228;2023-06-22T07:03:30;32.60;99.90
18654;DHT22;9456;47.824;16.228;2023-06-22T07:05:59;32.40;99.90
18654;DHT22;9456;47.824;16.228;2023-06-22T07:08:28;32.10;99.90
18654;DHT22;9456;47.824;16.228;2023-06-22T07:10:57;32.00;99.80
18654;DHT22;9456;47.824;16.228;2023-06-22T07:13:27;32.20;97.90
18654;DHT22;9456;47.824;16.228;2023-06-22T07:15:56;32.20;98.90
18654;DHT22;9456;47.824;16.228;2023-06-22T07:18:25;32.10;97.40
18654;DHT22;9456;47.824;16.228;2023-06-22T07:20:55;32.00;98.40
18654;DHT22;9456;47.824;16.228;2023-06-22T07:23:24;31.70;98.00
18654;DHT22;9456;47.824;16.228;2023-06-22T07:25:53;31.90;98.90
18654;DHT22;9456;47.824;16.228;2023-06-22T07:28:21;32.20;97.80
18654;DHT22;9456;47.824;16.228;2023-06-22T07:30:50;32.40;95.90
18654;DHT22;9456;47.824;16.228;2023-06-22T07:33:19;32.20;95.10
18654;DHT22;9456;47.824;16.228;2023-06-22T07:35:48;32.00;94.20
18654;DHT22;9456;47.824;16.228;2023-06-22T07:38:17;31.50;96.10
18654;DHT22;9456;47.824;16.228;2023-06-22T07:40:46;31.30;97.50
18654;DHT22;9456;47.824;16.228;2023-06-22T07:43:15;31.40;98.20
18654;DHT22;9456;47.824;16.228;2023-06-22T07:45:48;31.50;98.40
18654;DHT22;9456;47.824;16.228;2023-06-22T07:48:20;31.60;97.80
18654;DHT22;9456;47.824;16.228;2023-06-22T07:50:49;31.60;98.00
18654;DHT22;9456;47.824;16.228;2023-06-22T07:53:18;31.70;97.10
18654;DHT22;9456;47.824;16.228;2023-06-22T07:55:47;31.60;96.70
18654;DHT22;9456;47.824;16.228;2023-06-22T07:58:16;31.60;97.90
18654;DHT22;9456;47.824;16.228;2023-06-22T08:00:46;31.50;97.40
18654;DHT22;9456;47.824;16.228;2023-06-22T08:03:15;31.60;98.20
18654;DHT22;9456;47.824;16.228;2023-06-22T08:05:44;31.30;98.00
18654;DHT22;9456;47.824;16.228;2023-06-22T08:08:12;31.30;98.30
18654;DHT22;9456;47.824;16.228;2023-06-22T08:10:42;31.40;97.90
18654;DHT22;9456;47.824;16.228;2023-06-22T08:13:11;31.50;97.90
18654;DHT22;9456;47.824;16.228;2023-06-22T08:15:46;31.40;97.10
18654;DHT22;9456;47.824;16.228;2023-06-22T08:18:14;31.30;97.70
18654;DHT22;9456;47.824;16.228;2023-06-22T08:20:43;31.30;98.20
18654;DHT22;9456;47.824;16.228;2023-06-22T08:23:12;31.40;98.30
18654;DHT22;9456;47.824;16.228;2023-06-22T08:25:41;31.60;96.80
18654;DHT22;9456;47.824;16.228;2023-06-22T08:28:10;31.60;96.80
18654;DHT22;9456;47.824;16.228;2023-06-22T08:30:39;31.60;96.70
18654;DHT22;9456;47.824;16.228;2023-06-22T08:33:08;31.50;96.80
18654;DHT22;9456;47.824;16.228;2023-06-22T08:35:37;31.70;98.40
18654;DHT22;9456;47.824;16.228;2023-06-22T08:38:06;31.70;95.60
18654;DHT22;9456;47.824;16.228;2023-06-22T08:40:35;31.70;96.20
18654;DHT22;9456;47.824;16.228;2023-06-22T08:43:04;31.80;95.50
18654;DHT22;9456;47.824;16.228;2023-06-22T08:45:34;31.90;94.10
18654;DHT22;9456;47.824;16.228;2023-06-22T08:48:03;31.90;94.30
18654;DHT22;9456;47.824;16.228;2023-06-22T08:50:32;31.70;94.50
18654;DHT22;9456;47.824;16.228;2023-06-22T08:53:01;31.90;94.50
18654;DHT22;9456;47.824;16.228;2023-06-22T08:55:29;32.10;93.70
18654;DHT22;9456;47.824;16.228;2023-06-22T08:57:58;32.20;93.40
18654;DHT22;9456;47.824;16.228;2023-06-22T09:00:27;32.50;94.30
18654;DHT22;9456;47.824;16.228;2023-06-22T09:02:56;33.00;92.40
18654;DHT22;9456;47.824;16.228;2023-06-22T09:05:25;33.00;90.60
18654;DHT22;9456;47.824;16.228;2023-06-22T09:07:55;32.70;91.00
18654;DHT22;9456;47.824;16.228;2023-06-22T09:10:23;32.50;91.40
18654;DHT22;9456;47.824;16.228;2023-06-22T09:12:52;32.30;92.80
18654;DHT22;9456;47.824;16.228;2023-06-22T09:15:21;32.50;91.00
18654;DHT22;9456;47.824;16.228;2023-06-22T09:17:53;32.50;92.60
18654;DHT22;9456;47.824;16.228;2023-06-22T09:20:23;32.60;91.70
18654;DHT22;9456;47.824;16.228;2023-06-22T09:22:52;32.60;93.50
18654;DHT22;9456;47.824;16.228;2023-06-22T09:25:21;32.90;90.90
18654;DHT22;9456;47.824;16.228;2023-06-22T09:27:50;32.90;91.30
18654;DHT22;9456;47.824;16.228;2023-06-22T09:30:19;32.90;92.00
18654;DHT22;9456;47.824;16.228;2023-06-22T09:32:48;32.80;91.00
18654;DHT22;9456;47.824;16.228;2023-06-22T09:35:17;32.70;91.30
18654;DHT22;9456;47.824;16.228;2023-06-22T09:37:46;32.60;91.30
18654;DHT22;9456;47.824;16.228;2023-06-22T09:40:15;32.40;92.10
18654;DHT22;9456;47.824;16.228;2023-06-22T09:42:43;32.40;91.50
18654;DHT22;9456;47.824;16.228;2023-06-22T09:45:12;32.50;91.00
18654;DHT22;9456;47.824;16.228;2023-06-22T09:47:41;32.60;91.50
18654;DHT22;9456;47.824;16.228;2023-06-22T09:50:11;32.70;89.00
18654;DHT22;9456;47.824;16.228;2023-06-22T09:52:40;32.70;89.40
18654;DHT22;9456;47.824;16.228;2023-06-22T09:55:09;32.60;89.20
18654;DHT22;9456;47.824;16.228;2023-06-22T09:57:38;32.50;90.20
18654;DHT22;9456;47.824;16.228;2023-06-22T10:00:09;32.50;90.40
18654;DHT22;9456;47.824;16.228;2023-06-22T10:02:40;32.60;90.10
18654;DHT22;9456;47.824;16.228;2023-06-22T10:05:09;32.50;90.20
18654;DHT22;9456;47.824;16.228;2023-06-22T10:07:38;32.40;89.90
18654;DHT22;9456;47.824;16.228;2023-06-22T10:10:09;32.40;90.60
18654;DHT22;9456;47.824;16.228;2023-06-22T10:12:40;32.60;90.80
18654;DHT22;9456;47.824;16.228;2023-06-22T10:15:09;32.70;89.00
18654;DHT22;9456;47.824;16.228;2023-06-22T10:17:38;32.60;88.50
18654;DHT22;9456;47.824;16.228;2023-06-22T10:20:09;32.70;90.10
18654;DHT22;9456;47.824;16.228;2023-06-22T10:22:43;32.50;89.70
18654;DHT22;9456;47.824;16.228;2023-06-22T10:25:11;32.40;89.90
18654;DHT22;9456;47.824;16.228;2023-06-22T10:27:40;32.30;90.00
18654;DHT22;9456;47.824;16.228;2023-06-22T10:30:10;32.10;90.00
18654;DHT22;9456;47.824;16.228;2023-06-22T10:32:39;32.00;90.70
18654;DHT22;9456;47.824;16.228;2023-06-22T10:35:09;32.00;91.80
18654;DHT22;9456;47.824;16.228;2023-06-22T10:37:39;32.20;92.10
18654;DHT22;9456;47.824;16.228;2023-06-22T10:40:10;32.20;90.90
18654;DHT22;9456;47.824;16.228;2023-06-22T10:42:39;32.00;91.20
18654;DHT22;9456;47.824;16.228;2023-06-22T10:45:09;31.90;91.30
18654;DHT22;9456;47.824;16.228;2023-06-22T10:47:38;31.50;91.70
18654;DHT22;9456;47.824;16.228;2023-06-22T10:50:08;31.20;92.20
18654;DHT22;9456;47.824;16.228;2023-06-22T10:52:37;31.10;91.80
18654;DHT22;9456;47.824;16.228;2023-06-22T10:55:07;30.90;92.00
18654;DHT22;9456;47.824;16.228;2023-06-22T10:57:36;30.70;92.80
18654;DHT22;9456;47.824;16.228;2023-06-22T11:00:07;30.50;93.40
18654;DHT22;9456;47.824;16.228;2023-06-22T11:02:37;30.50;94.50
18654;DHT22;9456;47.824;16.228;2023-06-22T11:05:07;30.50;94.30
18654;DHT22;9456;47.824;16.228;2023-06-22T11:07:36;30.60;95.20
18654;DHT22;9456;47.824;16.228;2023-06-22T11:10:06;30.50;94.50
18654;DHT22;9456;47.824;16.228;2023-06-22T11:12:36;30.30;95.00
18654;DHT22;9456;47.824;16.228;2023-06-22T11:15:07;30.20;96.60
18654;DHT22;9456;47.824;16.228;2023-06-22T11:17:36;30.20;96.00
18654;DHT22;9456;47.824;16.228;2023-06-22T11:20:07;30.20;96.00
18654;DHT22;9456;47.824;16.228;2023-06-22T11:22:38;30.20;96.10
18654;DHT22;9456;47.824;16.228;2023-06-22T11:25:07;30.30;96.00
18654;DHT22;9456;47.824;16.228;2023-06-22T11:27:36;30.40;96.40
18654;DHT22;9456;47.824;16.228;2023-06-22T11:30:07;30.50;96.50
18654;DHT22;9456;47.824;16.228;2023-06-22T11:32:36;30.50;96.00
18654;DHT22;9456;47.824;16.228;2023-06-22T11:35:06;30.40;96.80
18654;DHT22;9456;47.824;16.228;2023-06-22T11:37:34;30.40;96.20
18654;DHT22;9456;47.824;16.228;2023-06-22T11:40:04;30.50;96.10
18654;DHT22;9456;47.824;16.228;2023-06-22T11:42:34;30.60;96.90
18654;DHT22;9456;47.824;16.228;2023-06-22T11:45:04;30.70;96.60
18654;DHT22;9456;47.824;16.228;2023-06-22T11:47:32;30.70;96.20
18654;DHT22;9456;47.824;16.228;2023-06-22T11:50:01;30.70;96.30
18654;DHT22;9456;47.824;16.228;2023-06-22T11:52:30;30.80;96.20
18654;DHT22;9456;47.824;16.228;2023-06-22T11:54:59;30.80;96.80
18654;DHT22;9456;47.824;16.228;2023-06-22T11:57:28;30.80;96.10
18654;DHT22;9456;47.824;16.228;2023-06-22T11:59:57;30.70;96.30
18654;DHT22;9456;47.824;16.228;2023-06-22T12:02:26;30.70;96.70
18654;DHT22;9456;47.824;16.228;2023-06-22T12:04:54;30.70;96.90
18654;DHT22;9456;47.824;16.228;2023-06-22T12:07:23;30.70;97.40
18654;DHT22;9456;47.824;16.228;2023-06-22T12:09:52;30.70;97.50
18654;DHT22;9456;47.824;16.228;2023-06-22T12:12:21;30.70;96.80
18654;DHT22;9456;47.824;16.228;2023-06-22T12:14:50;30.70;97.70
18654;DHT22;9456;47.824;16.228;2023-06-22T12:17:19;30.70;97.60
18654;DHT22;9456;47.824;16.228;2023-06-22T12:19:48;30.70;97.80
18654;DHT22;9456;47.824;16.228;2023-06-22T12:22:17;30.60;98.00
18654;DHT22;9456;47.824;16.228;2023-06-22T12:24:46;30.60;97.40
18654;DHT22;9456;47.824;16.228;2023-06-22T12:27:16;30.50;98.10
18654;DHT22;9456;47.824;16.228;2023-06-22T12:29:45;30.50;98.90
18654;DHT22;9456;47.824;16.228;2023-06-22T12:32:15;30.50;99.10
18654;DHT22;9456;47.824;16.228;2023-06-22T12:34:44;30.60;99.20
18654;DHT22;9456;47.824;16.228;2023-06-22T12:37:12;30.70;99.60
18654;DHT22;9456;47.824;16.228;2023-06-22T12:39:42;30.80;99.50
18654;DHT22;9456;47.824;16.228;2023-06-22T12:42:11;30.80;98.50
18654;DHT22;9456;47.824;16.228;2023-06-22T12:44:40;30.70;98.80
18654;DHT22;9456;47.824;16.228;2023-06-22T12:47:09;30.70;98.70
18654;DHT22;9456;47.824;16.228;2023-06-22T12:49:38;30.70;99.90
18654;DHT22;9456;47.824;16.228;2023-06-22T12:52:10;30.70;98.80
18654;DHT22;9456;47.824;16.228;2023-06-22T12:54:39;30.80;98.10
18654;DHT22;9456;47.824;16.228;2023-06-22T12:57:08;30.80;99.30
18654;DHT22;9456;47.824;16.228;2023-06-22T12:59:37;30.90;98.30
18654;DHT22;9456;47.824;16.228;2023-06-22T13:02:06;30.80;98.40
18654;DHT22;9456;47.824;16.228;2023-06-22T13:04:35;30.80;98.00
18654;DHT22;9456;47.824;16.228;2023-06-22T13:07:05;30.80;98.30
18654;DHT22;9456;47.824;16.228;2023-06-22T13:09:33;30.80;99.00
18654;DHT22;9456;47.824;16.228;2023-06-22T13:12:02;30.80;99.10
18654;DHT22;9456;47.824;16.228;2023-06-22T13:14:31;30.80;98.10
18654;DHT22;9456;47.824;16.228;2023-06-22T13:17:00;30.80;98.50
18654;DHT22;9456;47.824;16.228;2023-06-22T13:19:29;30.80;98.70
18654;DHT22;9456;47.824;16.228;2023-06-22T13:21:58;30.70;99.20
18654;DHT22;9456;47.824;16.228;2023-06-22T13:24:27;30.70;99.40
18654;DHT22;9456;47.824;16.228;2023-06-22T13:26:57;30.70;99.40
18654;DHT22;9456;47.824;16.228;2023-06-22T13:29:26;30.70;99.30
18654;DHT22;9456;47.824;16.228;2023-06-22T13:31:58;30.70;99.20
18654;DHT22;9456;47.824;16.228;2023-06-22T13:34:27;30.60;99.20
18654;DHT22;9456;47.824;16.228;2023-06-22T13:36:56;30.60;99.60
18654;DHT22;9456;47.824;16.228;2023-06-22T13:39:25;30.60;99.90
18654;DHT22;9456;47.824;16.228;2023-06-22T13:41:54;30.70;99.20
18654;DHT22;9456;47.824;16.228;2023-06-22T13:44:22;30.60;99.70
18654;DHT22;9456;47.824;16.228;2023-06-22T13:46:51;30.70;99.90
18654;DHT22;9456;47.824;16.228;2023-06-22T13:49:20;30.70;99.90
18654;DHT22;9456;47.824;16.228;2023-06-22T13:51:50;30.80;99.90
18654;DHT22;9456;47.824;16.228;2023-06-22T13:54:19;30.80;99.90
18654;DHT22;9456;47.824;16.228;2023-06-22T13:56:48;30.80;98.90
18654;DHT22;9456;47.824;16.228;2023-06-22T13:59:17;30.70;99.00
18654;DHT22;9456;47.824;16.228;2023-06-22T14:01:45;30.70;99.00
18654;DHT22;9456;47.824;16.228;2023-06-22T14:04:14;30.70;99.90
18654;DHT22;9456;47.824;16.228;2023-06-22T14:06:43;30.70;99.90
18654;DHT22;9456;47.824;16.228;2023-06-22T14:09:12;30.80;99.70
18654;DHT22;9456;47.824;16.228;2023-06-22T14:11:41;30.80;99.90
18654;DHT22;9456;47.824;16.228;2023-06-22T14:14:10;30.80;99.50
18654;DHT22;9456;47.824;16.228;2023-06-22T14:16:39;30.80;99.40
18654;DHT22;9456;47.824;16.228;2023-06-22T14:19:08;30.90;99.60
18654;DHT22;9456;47.824;16.228;2023-06-22T14:21:37;31.00;99.60
18654;DHT22;9456;47.824;16.228;2023-06-22T14:24:06;30.90;99.40
18654;DHT22;9456;47.824;16.228;2023-06-22T14:26:35;31.00;99.50
18654;DHT22;9456;47.824;16.228;2023-06-22T14:29:05;31.00;99.90
18654;DHT22;9456;47.824;16.228;2023-06-22T14:31:34;31.00;99.70
18654;DHT22;9456;47.824;16.228;2023-06-22T14:34:03;31.00;99.90
18654;DHT22;9456;47.824;16.228;2023-06-22T14:36:32;31.10;99.90
18654;DHT22;9456;47.824;16.228;2023-06-22T14:39:01;31.10;99.40
18654;DHT22;9456;47.824;16.228;2023-06-22T14:41:30;31.10;99.70
18654;DHT22;9456;47.824;16.228;2023-06-22T14:43:59;31.00;99.50
18654;DHT22;9456;47.824;16.228;2023-06-22T14:46:27;31.00;98.70
18654;DHT22;9456;47.824;16.228;2023-06-22T14:48:56;31.00;99.60
18654;DHT22;9456;47.824;16.228;2023-06-22T14:51:25;31.00;99.60
18654;DHT22;9456;47.824;16.228;2023-06-22T14:53:55;31.00;99.60
18654;DHT22;9456;47.824;16.228;2023-06-22T14:56:23;30.90;99.40
18654;DHT22;9456;47.824;16.228;2023-06-22T14:58:52;30.90;99.60
18654;DHT22;9456;47.824;16.228;2023-06-22T15:01:21;30.90;99.60
18654;DHT22;9456;47.824;16.228;2023-06-22T15:03:50;30.80;99.00
18654;DHT22;9456;47.824;16.228;2023-06-22T15:06:19;30.70;98.90
18654;DHT22;9456;47.824;16.228;2023-06-22T15:08:48;30.70;99.40
18654;DHT22;9456;47.824;16.228;2023-06-22T15:11:17;30.70;99.60
18654;DHT22;9456;47.824;16.228;2023-06-22T15:13:46;30.80;99.20
18654;DHT22;9456;47.824;16.228;2023-06-22T15:16:15;30.80;99.20
18654;DHT22;9456;47.824;16.228;2023-06-22T15:18:44;30.80;99.50
18654;DHT22;9456;47.824;16.228;2023-06-22T15:21:13;30.90;98.90
18654;DHT22;9456;47.824;16.228;2023-06-22T15:23:42;30.90;98.50
18654;DHT22;9456;47.824;16.228;2023-06-22T15:26:11;30.90;98.50
18654;DHT22;9456;47.824;16.228;2023-06-22T15:28:40;30.80;98.80
18654;DHT22;9456;47.824;16.228;2023-06-22T15:31:09;30.90;98.50
18654;DHT22;9456;47.824;16.228;2023-06-22T15:33:38;31.00;99.00
18654;DHT22;9456;47.824;16.228;2023-06-22T15:36:07;30.90;98.40
18654;DHT22;9456;47.824;16.228;2023-06-22T15:38:36;30.90;99.10
18654;DHT22;9456;47.824;16.228;2023-06-22T15:41:05;30.90;99.20
18654;DHT22;9456;47.824;16.228;2023-06-22T15:43:34;31.00;98.70
18654;DHT22;9456;47.824;16.228;2023-06-22T15:46:03;30.90;98.90